createdAt,value
2022-08-01T00:01:00.919Z,101104.84
2022-08-01T00:04:03.952Z,101115.53
2022-08-01T00:07:06.904Z,101112.75
2022-08-01T00:10:13.422Z,101113.78
2022-08-01T00:13:16.413Z,101114.00
2022-08-01T00:16:19.420Z,101112.59
2022-08-01T00:19:22.432Z,101110.78
2022-08-01T00:22:25.572Z,101117.94
2022-08-01T00:25:34.153Z,101115.38
2022-08-01T00:28:37.534Z,101121.72
2022-08-01T00:31:41.491Z,101117.22
2022-08-01T00:34:44.491Z,101120.72
2022-08-01T00:37:47.458Z,101118.25
2022-08-01T00:40:51.839Z,101117.31
2022-08-01T00:43:55.290Z,101120.47
2022-08-01T00:46:58.268Z,101115.13
2022-08-01T00:50:01.184Z,101122.94
2022-08-01T00:53:04.568Z,101124.69
2022-08-01T00:56:09.457Z,101121.25
2022-08-01T00:59:14.116Z,101126.59
2022-08-01T01:02:18.977Z,101128.31
2022-08-01T01:05:22.341Z,101120.28
2022-08-01T01:08:32.801Z,101121.41
2022-08-01T01:11:48.358Z,101120.63
2022-08-01T01:14:58.874Z,101126.94
2022-08-01T01:18:07.106Z,101125.09
2022-08-01T01:21:18.730Z,101122.84
2022-08-01T01:24:39.793Z,101115.84
2022-08-01T01:27:52.251Z,101116.72
2022-08-01T01:30:59.451Z,101119.38
2022-08-01T01:34:05.004Z,101121.03
2022-08-01T01:37:11.526Z,101105.66
2022-08-01T01:40:17.355Z,101102.06
2022-08-01T01:43:22.509Z,101102.88
2022-08-01T01:46:34.177Z,101100.19
2022-08-01T01:49:37.395Z,101100.22
2022-08-01T01:52:41.990Z,101094.75
2022-08-01T01:55:49.663Z,101100.00
2022-08-01T01:58:57.589Z,101093.63
2022-08-01T02:02:08.891Z,101080.13
2022-08-01T02:05:13.682Z,101081.09
2022-08-01T02:08:18.140Z,101080.13
2022-08-01T02:11:22.375Z,101081.00
2022-08-01T02:14:27.755Z,101081.88
2022-08-01T02:17:32.912Z,101081.78
2022-08-01T02:20:38.882Z,101084.47
2022-08-01T02:23:42.515Z,101079.09
2022-08-01T02:26:50.979Z,101081.78
2022-08-01T02:30:00.491Z,101083.59
2022-08-01T02:33:15.636Z,101080.91
2022-08-01T02:36:30.743Z,101073.22
2022-08-01T02:39:38.679Z,101074.25
2022-08-01T02:42:45.734Z,101080.66
2022-08-01T02:45:53.901Z,101076.41
2022-08-01T02:49:01.493Z,101080.91
2022-08-01T02:52:10.158Z,101073.75
2022-08-01T02:55:15.046Z,101086.84
2022-08-01T02:58:22.197Z,101082.34
2022-08-01T03:01:33.901Z,101094.75
2022-08-01T03:04:40.193Z,101093.88
2022-08-01T03:07:44.796Z,101097.31
2022-08-01T03:10:54.349Z,101092.94
2022-08-01T03:13:58.670Z,101101.78
2022-08-01T03:17:03.105Z,101107.16
2022-08-01T03:20:10.426Z,101108.97
2022-08-01T03:23:14.525Z,101108.97
2022-08-01T03:26:18.189Z,101119.81
2022-08-01T03:29:24.809Z,101110.00
2022-08-01T03:32:30.345Z,101117.13
2022-08-01T03:35:38.893Z,101115.38
2022-08-01T03:38:43.089Z,101118.91
2022-08-01T03:41:58.286Z,101121.59
2022-08-01T03:45:06.017Z,101118.91
2022-08-01T03:48:14.790Z,101117.22
2022-08-01T03:51:20.519Z,101124.38
2022-08-01T03:54:26.219Z,101119.22
2022-08-01T03:57:36.142Z,101121.03
2022-08-01T04:00:40.919Z,101129.13
2022-08-01T04:03:44.376Z,101123.97
2022-08-01T04:06:52.119Z,101123.97
2022-08-01T04:09:55.417Z,101126.78
2022-08-01T04:12:58.336Z,101127.75
2022-08-01T04:16:01.425Z,101134.03
2022-08-01T04:19:04.469Z,101126.09
2022-08-01T04:22:10.526Z,101128.88
2022-08-01T04:25:19.582Z,101116.53
2022-08-01T04:28:24.371Z,101127.31
2022-08-01T04:31:28.581Z,101124.63
2022-08-01T04:34:35.291Z,101122.03
2022-08-01T04:37:42.254Z,101123.78
2022-08-01T04:40:47.500Z,101130.03
2022-08-01T04:43:52.147Z,101133.69
2022-08-01T04:46:57.827Z,101130.16
2022-08-01T04:50:01.188Z,101131.94
2022-08-01T04:53:06.101Z,101130.28
2022-08-01T04:56:09.089Z,101134.81
2022-08-01T04:59:29.308Z,101134.03
2022-08-01T05:02:32.261Z,101138.59
2022-08-01T05:05:35.463Z,101137.72
2022-08-01T05:08:39.696Z,101136.75
2022-08-01T05:11:42.621Z,101132.38
2022-08-01T05:14:46.914Z,101135.81
2022-08-01T05:17:49.852Z,101139.44
2022-08-01T05:20:52.777Z,101149.44
2022-08-01T05:23:57.041Z,101140.56
2022-08-01T05:27:00.857Z,101146.78
2022-08-01T05:30:07.321Z,101145.03
2022-08-01T05:33:10.149Z,101151.25
2022-08-01T05:36:13.019Z,101148.50
2022-08-01T05:39:17.275Z,101155.66
2022-08-01T05:42:20.149Z,101147.63
2022-08-01T05:45:23.162Z,101155.66
2022-08-01T05:48:26.197Z,101150.31
2022-08-01T05:51:29.084Z,101155.66
2022-08-01T05:54:33.449Z,101155.47
2022-08-01T05:57:36.280Z,101148.50
2022-08-01T06:00:42.260Z,101151.25
2022-08-01T06:03:45.186Z,101153.00
2022-08-01T06:06:48.264Z,101159.28
2022-08-01T06:09:52.449Z,101162.66
2022-08-01T06:12:55.306Z,101165.59
2022-08-01T06:15:58.820Z,101166.50
2022-08-01T06:19:01.781Z,101169.72
2022-08-01T06:22:04.909Z,101175.75
2022-08-01T06:25:10.923Z,101182.94
2022-08-01T06:28:13.807Z,101184.75
2022-08-01T06:31:16.746Z,101183.09
2022-08-01T06:34:19.737Z,101183.28
2022-08-01T06:37:22.730Z,101187.75
2022-08-01T06:40:27.684Z,101192.22
2022-08-01T06:43:30.603Z,101191.22
2022-08-01T06:46:33.560Z,101194.66
2022-08-01T06:49:38.127Z,101187.50
2022-08-01T06:52:41.104Z,101186.41
2022-08-01T06:55:45.398Z,101192.59
2022-08-01T06:58:48.449Z,101189.13
2022-08-01T07:01:51.563Z,101188.28
2022-08-01T07:04:54.460Z,101183.88
2022-08-01T07:07:57.414Z,101187.41
2022-08-01T07:11:01.842Z,101194.41
2022-08-01T07:14:04.709Z,101196.22
2022-08-01T07:17:07.623Z,101195.19
2022-08-01T07:20:12.317Z,101181.84
2022-08-01T07:23:22.619Z,101185.38
2022-08-01T07:26:27.659Z,101185.19
2022-08-01T07:29:30.562Z,101173.47
2022-08-01T07:32:34.702Z,101176.94
2022-08-01T07:35:39.162Z,101182.19
2022-08-01T07:38:42.213Z,101186.59
2022-08-01T07:42:06.118Z,101187.38
2022-08-01T07:45:10.756Z,101192.53
2022-08-01T07:48:13.967Z,101189.88
2022-08-01T07:51:16.876Z,101181.78
2022-08-01T07:54:19.780Z,101183.59
2022-08-01T07:57:24.128Z,101187.13
2022-08-01T08:00:28.464Z,101189.72
2022-08-01T08:03:31.455Z,101189.72
2022-08-01T08:06:34.424Z,101196.88
2022-08-01T08:09:38.117Z,101192.41
2022-08-01T08:12:42.987Z,101203.00
2022-08-01T08:15:48.208Z,101210.19
2022-08-01T08:18:51.596Z,101204.75
2022-08-01T08:21:54.954Z,101207.50
2022-08-01T08:24:59.909Z,101219.06
2022-08-01T08:28:05.451Z,101216.31
2022-08-01T08:31:51.002Z,101214.56
2022-08-01T08:34:31.812Z,101210.97
2022-08-01T08:37:38.989Z,101215.34
2022-08-01T08:40:42.625Z,101213.56
2022-08-01T08:43:46.978Z,101217.09
2022-08-01T08:46:53.002Z,101218.91
2022-08-01T08:49:58.097Z,101228.63
2022-08-01T08:53:03.206Z,101225.13
2022-08-01T08:56:10.801Z,101223.47
2022-08-01T08:59:15.947Z,101231.41
2022-08-01T09:02:18.810Z,101233.22
2022-08-01T09:05:26.606Z,101237.63
2022-08-01T09:08:42.851Z,101235.81
2022-08-01T09:11:46.412Z,101233.09
2022-08-01T09:15:02.075Z,101228.63
2022-08-01T09:18:05.124Z,101234.75
2022-08-01T09:21:14.887Z,101235.53
2022-08-01T09:24:18.560Z,101240.09
2022-08-01T09:27:33.939Z,101242.78
2022-08-01T09:30:40.958Z,101249.84
2022-08-01T09:33:55.265Z,101245.44
2022-08-01T09:37:03.989Z,101255.19
2022-08-01T09:40:10.322Z,101257.00
2022-08-01T09:43:14.858Z,101248.97
2022-08-01T09:46:20.467Z,101254.31
2022-08-01T09:49:50.924Z,101262.28
2022-08-01T09:52:57.083Z,101265.88
2022-08-01T09:56:12.168Z,101263.16
2022-08-01T09:59:16.857Z,101268.41
2022-08-01T10:02:32.335Z,101259.50
2022-08-01T10:05:37.529Z,101260.38
2022-08-01T10:08:48.065Z,101257.63
2022-08-01T10:11:51.127Z,101258.50
2022-08-01T10:14:56.376Z,101267.31
2022-08-01T10:18:03.973Z,101265.56
2022-08-01T10:21:08.711Z,101282.34
2022-08-01T10:24:14.977Z,101281.63
2022-08-01T10:27:35.840Z,101287.75
2022-08-01T10:30:44.076Z,101286.81
2022-08-01T10:33:51.333Z,101281.63
2022-08-01T10:36:56.240Z,101292.31
2022-08-01T10:40:28.437Z,101295.00
2022-08-01T10:43:22.530Z,101288.03
2022-08-01T10:46:26.311Z,101292.50
2022-08-01T10:49:36.433Z,101288.88
2022-08-01T10:52:40.025Z,101297.84
2022-08-01T10:55:55.095Z,101297.84
2022-08-01T10:59:06.191Z,101297.75
2022-08-01T11:02:27.875Z,101297.75
2022-08-01T11:05:37.825Z,101305.69
2022-08-01T11:08:41.307Z,101299.66
2022-08-01T11:12:01.105Z,101307.59
2022-08-01T11:15:29.797Z,101311.06
2022-08-01T11:18:37.553Z,101313.72
2022-08-01T11:22:05.000Z,101311.84
2022-08-01T11:25:08.166Z,101317.38
2022-08-01T11:28:32.015Z,101314.78
2022-08-01T11:31:38.388Z,101317.50
2022-08-01T11:34:57.984Z,101310.44
2022-08-01T11:38:25.116Z,101323.66
2022-08-01T11:41:38.507Z,101313.81
2022-08-01T11:44:51.219Z,101316.41
2022-08-01T11:47:54.282Z,101316.59
2022-08-01T11:51:02.282Z,101326.31
2022-08-01T11:54:06.927Z,101317.47
2022-08-01T11:57:12.045Z,101327.19
2022-08-01T12:00:17.870Z,101334.13
2022-08-01T12:03:33.759Z,101335.06
2022-08-01T12:06:37.294Z,101329.78
2022-08-01T12:09:47.607Z,101337.81
2022-08-01T12:12:52.846Z,101336.88
2022-08-01T12:15:57.187Z,101345.84
2022-08-01T12:19:00.551Z,101345.94
2022-08-01T12:22:11.694Z,101350.34
2022-08-01T12:25:18.228Z,101353.09
2022-08-01T12:28:21.129Z,101352.25
2022-08-01T12:31:33.542Z,101353.19
2022-08-01T12:34:36.617Z,101347.72
2022-08-01T12:37:39.967Z,101358.38
2022-08-01T12:40:46.052Z,101365.53
2022-08-01T12:43:50.111Z,101359.31
2022-08-01T12:46:53.681Z,101358.38
2022-08-01T12:49:56.859Z,101368.31
2022-08-01T12:53:00.545Z,101372.78
2022-08-01T12:56:05.230Z,101371.03
2022-08-01T12:59:21.908Z,101364.84
2022-08-01T13:02:33.960Z,101365.63
2022-08-01T13:05:44.194Z,101363.72
2022-08-01T13:08:47.774Z,101372.59
2022-08-01T13:12:03.667Z,101366.22
2022-08-01T13:15:41.548Z,101368.81
2022-08-01T13:18:51.499Z,101371.50
2022-08-01T13:21:58.752Z,101371.44
2022-08-01T13:25:12.418Z,101376.59
2022-08-01T13:28:21.393Z,101370.41
2022-08-01T13:31:34.540Z,101368.53
2022-08-01T13:34:38.250Z,101372.22
2022-08-01T13:37:43.279Z,101372.13
2022-08-01T13:40:46.308Z,101367.66
2022-08-01T13:43:59.023Z,101368.53
2022-08-01T13:47:15.018Z,101378.25
2022-08-01T13:50:19.921Z,101380.94
2022-08-01T13:53:22.856Z,101376.38
2022-08-01T13:56:27.961Z,101382.59
2022-08-01T13:59:32.445Z,101378.16
2022-08-01T14:02:35.439Z,101382.59
2022-08-01T14:05:38.483Z,101387.03
2022-08-01T14:08:41.554Z,101387.03
2022-08-01T14:11:49.077Z,101397.72
2022-08-01T14:14:53.379Z,101409.28
2022-08-01T14:17:56.637Z,101414.63
2022-08-01T14:21:05.566Z,101405.66
2022-08-01T14:24:10.593Z,101414.56
2022-08-01T14:27:13.720Z,101414.63
2022-08-01T14:30:18.045Z,101418.09
2022-08-01T14:33:21.013Z,101415.34
2022-08-01T14:36:30.975Z,101419.84
2022-08-01T14:39:34.342Z,101425.97
2022-08-01T14:42:38.599Z,101429.53
2022-08-01T14:45:42.957Z,101433.03
2022-08-01T14:48:45.950Z,101438.41
2022-08-01T14:51:48.857Z,101430.38
2022-08-01T14:54:51.823Z,101433.91
2022-08-01T14:57:55.100Z,101433.91
2022-08-01T15:00:59.720Z,101428.56
2022-08-01T15:04:04.533Z,101433.81
2022-08-01T15:07:07.549Z,101434.78
2022-08-01T15:10:11.644Z,101439.19
2022-08-01T15:13:14.575Z,101440.94
2022-08-01T15:16:18.853Z,101433.69
2022-08-01T15:19:21.987Z,101431.00
2022-08-01T15:22:26.563Z,101430.91
2022-08-01T15:25:41.780Z,101425.66
2022-08-01T15:28:45.388Z,101431.00
2022-08-01T15:31:49.684Z,101433.69
2022-08-01T15:34:52.760Z,101430.13
2022-08-01T15:37:56.202Z,101434.56
2022-08-01T15:40:59.265Z,101440.78
2022-08-01T15:44:02.172Z,101440.00
2022-08-01T15:47:07.514Z,101438.16
2022-08-01T15:50:10.836Z,101440.84
2022-08-01T15:53:14.170Z,101448.03
2022-08-01T15:56:17.140Z,101448.03
2022-08-01T15:59:20.153Z,101441.72
2022-08-01T16:02:27.918Z,101440.00
2022-08-01T16:05:30.892Z,101448.88
2022-08-01T16:08:33.863Z,101452.41
2022-08-01T16:11:42.368Z,101457.78
2022-08-01T16:14:48.781Z,101443.53
2022-08-01T16:17:53.057Z,101454.16
2022-08-01T16:20:57.254Z,101452.34
2022-08-01T16:24:00.217Z,101457.69
2022-08-01T16:27:03.328Z,101450.63
2022-08-01T16:30:07.832Z,101449.75
2022-08-01T16:33:16.287Z,101451.50
2022-08-01T16:36:35.382Z,101448.72
2022-08-01T16:39:38.481Z,101450.44
2022-08-01T16:42:41.459Z,101454.00
2022-08-01T16:45:44.551Z,101440.59
2022-08-01T16:48:48.875Z,101453.06
2022-08-01T16:51:51.790Z,101464.63
2022-08-01T16:54:54.643Z,101456.56
2022-08-01T16:57:58.572Z,101466.34
2022-08-01T17:01:58.583Z,101464.56
2022-08-01T17:04:26.782Z,101464.56
2022-08-01T17:07:29.738Z,101472.59
2022-08-01T17:10:34.185Z,101468.16
2022-08-01T17:13:37.141Z,101469.13
2022-08-01T17:16:40.071Z,101467.38
2022-08-01T17:19:44.377Z,101466.59
2022-08-01T17:22:47.328Z,101469.28
2022-08-01T17:25:50.733Z,101470.22
2022-08-01T17:28:53.697Z,101464.88
2022-08-01T17:31:56.642Z,101476.53
2022-08-01T17:35:01.049Z,101470.28
2022-08-01T17:38:04.011Z,101475.66
2022-08-01T17:41:07.105Z,101478.28
2022-08-01T17:44:11.440Z,101488.97
2022-08-01T17:47:28.818Z,101492.59
2022-08-01T17:50:38.920Z,101491.72
2022-08-01T17:53:53.206Z,101504.16
2022-08-01T17:56:59.791Z,101507.88
2022-08-01T18:00:03.143Z,101509.63
2022-08-01T18:03:08.400Z,101510.53
2022-08-01T18:06:14.391Z,101512.34
2022-08-01T18:09:19.396Z,101511.56
2022-08-01T18:12:23.425Z,101515.19
2022-08-01T18:15:27.044Z,101516.03
2022-08-01T18:18:33.779Z,101514.31
2022-08-01T18:21:42.682Z,101514.31
2022-08-01T18:24:45.985Z,101508.09
2022-08-01T18:28:29.274Z,101509.84
2022-08-01T18:31:15.270Z,101512.56
2022-08-01T18:34:18.983Z,101516.13
2022-08-01T18:37:23.275Z,101518.81
2022-08-01T18:40:29.778Z,101517.94
2022-08-01T18:43:32.967Z,101527.94
2022-08-01T18:46:36.861Z,101533.28
2022-08-01T18:49:39.855Z,101537.84
2022-08-01T18:52:44.787Z,101541.41
2022-08-01T18:55:47.707Z,101544.09
2022-08-01T18:58:50.608Z,101546.75
2022-08-01T19:01:53.788Z,101552.13
2022-08-01T19:04:56.796Z,101555.72
2022-08-01T19:08:06.120Z,101561.06
2022-08-01T19:11:10.481Z,101563.69
2022-08-01T19:14:13.451Z,101568.19
2022-08-01T19:17:16.426Z,101576.13
2022-08-01T19:20:19.809Z,101577.00
2022-08-01T19:23:41.481Z,101571.63
2022-08-01T19:26:47.897Z,101568.97
2022-08-01T19:29:55.695Z,101578.81
2022-08-01T19:32:58.860Z,101577.09
2022-08-01T19:36:02.445Z,101589.59
2022-08-01T19:39:07.680Z,101588.72
2022-08-01T19:42:13.199Z,101591.47
2022-08-01T19:45:16.379Z,101605.66
2022-08-01T19:48:20.683Z,101609.25
2022-08-01T19:51:33.061Z,101613.69
2022-08-01T19:54:40.455Z,101613.69
2022-08-01T19:57:45.255Z,101617.22
2022-08-01T20:00:50.724Z,101618.94
2022-08-01T20:03:54.279Z,101618.06
2022-08-01T20:06:58.087Z,101622.50
2022-08-01T20:10:04.296Z,101630.53
2022-08-01T20:13:10.883Z,101633.22
2022-08-01T20:16:13.771Z,101627.88
2022-08-01T20:19:18.581Z,101629.66
2022-08-01T20:22:26.781Z,101635.00
2022-08-01T20:25:39.869Z,101636.81
2022-08-01T20:28:47.262Z,101644.84
2022-08-01T20:31:51.448Z,101651.06
2022-08-01T20:34:56.091Z,101650.19
2022-08-01T20:38:03.609Z,101655.56
2022-08-01T20:41:11.606Z,101649.28
2022-08-01T20:44:14.946Z,101651.94
2022-08-01T20:47:19.640Z,101647.47
2022-08-01T20:50:52.744Z,101651.94
2022-08-01T20:53:57.498Z,101651.06
2022-08-01T20:57:07.608Z,101652.88
2022-08-01T21:00:12.072Z,101654.72
2022-08-01T21:03:20.579Z,101649.41
2022-08-01T21:06:31.905Z,101647.69
2022-08-01T21:09:39.564Z,101653.03
2022-08-01T21:12:49.503Z,101655.72
2022-08-01T21:16:07.420Z,101661.06
2022-08-01T21:19:26.814Z,101665.56
2022-08-01T21:22:34.120Z,101675.38
2022-08-01T21:25:37.541Z,101682.50
2022-08-01T21:28:54.488Z,101686.09
2022-08-01T21:32:12.382Z,101686.09
2022-08-01T21:35:18.724Z,101693.19
2022-08-01T21:38:22.599Z,101707.38
2022-08-01T21:41:56.401Z,101706.41
2022-08-01T21:44:50.406Z,101704.69
2022-08-01T21:47:54.660Z,101709.09
2022-08-01T21:51:00.321Z,101718.97
2022-08-01T21:54:10.410Z,101711.84
2022-08-01T21:57:24.830Z,101710.97
2022-08-01T22:00:30.354Z,101718.09
2022-08-01T22:03:40.030Z,101718.09
2022-08-01T22:06:45.233Z,101716.34
2022-08-01T22:09:50.877Z,101720.75
2022-08-01T22:12:54.291Z,101721.69
2022-08-01T22:15:59.666Z,101722.56
2022-08-01T22:19:04.204Z,101723.50
2022-08-01T22:22:29.070Z,101728.00
2022-08-01T22:25:33.904Z,101719.09
2022-08-01T22:28:37.708Z,101714.63
2022-08-01T22:31:42.428Z,101717.28
2022-08-01T22:34:46.641Z,101718.22
2022-08-01T22:37:56.382Z,101727.22
2022-08-01T22:41:05.104Z,101732.56
2022-08-01T22:44:11.152Z,101733.47
2022-08-01T22:47:27.155Z,101729.09
2022-08-01T22:50:36.739Z,101737.13
2022-08-01T22:53:49.309Z,101738.91
2022-08-01T22:56:56.537Z,101739.00
2022-08-01T23:00:01.730Z,101743.41
2022-08-01T23:03:15.084Z,101730.09
2022-08-01T23:06:22.408Z,101730.09
2022-08-01T23:09:53.459Z,101731.09
2022-08-01T23:12:51.187Z,101733.78
2022-08-01T23:15:54.260Z,101735.75
2022-08-01T23:19:00.190Z,101745.56
2022-08-01T23:22:04.914Z,101734.00
2022-08-01T23:25:10.630Z,101734.06
2022-08-01T23:28:14.411Z,101740.34
2022-08-01T23:31:18.207Z,101735.00
2022-08-01T23:34:22.496Z,101728.78
2022-08-01T23:37:25.542Z,101727.84
2022-08-01T23:40:28.850Z,101730.50
2022-08-01T23:43:31.850Z,101719.81
2022-08-01T23:46:34.800Z,101728.72
2022-08-01T23:49:53.382Z,101729.63
2022-08-01T23:52:57.065Z,101728.78
2022-08-01T23:56:01.138Z,101727.97
2022-08-01T23:59:06.034Z,101721.78
